createdAt,value
2023-04-11T00:01:49.806Z,35.83
2023-04-11T00:04:17.914Z,34.47
2023-04-11T00:06:45.081Z,37.45
2023-04-11T00:09:12.627Z,36.63
2023-04-11T00:11:39.720Z,35.50
2023-04-11T00:14:07.611Z,40.72
2023-04-11T00:16:34.983Z,40.88
2023-04-11T00:19:02.382Z,37.05
2023-04-11T00:21:29.413Z,36.72
2023-04-11T00:23:56.414Z,35.72
2023-04-11T00:26:23.442Z,33.42
2023-04-11T00:28:50.500Z,36.47
2023-04-11T00:31:17.533Z,35.95
2023-04-11T00:33:44.719Z,37.08
2023-04-11T00:36:11.915Z,34.88
2023-04-11T00:38:39.371Z,36.42
2023-04-11T00:41:06.704Z,42.50
2023-04-11T00:43:33.731Z,38.92
2023-04-11T00:46:01.445Z,37.42
2023-04-11T00:48:28.762Z,33.80
2023-04-11T00:50:56.339Z,36.00
2023-04-11T00:53:24.316Z,32.30
2023-04-11T00:55:52.168Z,40.42
2023-04-11T00:58:19.464Z,36.38
2023-04-11T01:00:50.066Z,40.80
2023-04-11T01:03:18.776Z,39.35
2023-04-11T01:05:47.247Z,36.45
2023-04-11T01:08:15.311Z,38.03
2023-04-11T01:10:42.514Z,33.40
2023-04-11T01:13:10.128Z,34.63
2023-04-11T01:15:37.152Z,38.42
2023-04-11T01:18:05.795Z,39.55
2023-04-11T01:20:33.630Z,34.20
2023-04-11T01:23:03.200Z,36.20
2023-04-11T01:25:30.457Z,39.83
2023-04-11T01:27:57.695Z,36.58
2023-04-11T01:30:24.883Z,35.10
2023-04-11T01:32:52.054Z,40.35
2023-04-11T01:35:19.329Z,38.70
2023-04-11T01:37:46.592Z,36.97
2023-04-11T01:40:18.736Z,42.30
2023-04-11T01:42:47.222Z,44.90
2023-04-11T01:45:15.060Z,35.50
2023-04-11T01:47:42.460Z,37.08
2023-04-11T01:50:09.867Z,35.42
2023-04-11T01:52:36.874Z,30.95
2023-04-11T01:55:04.140Z,37.08
2023-04-11T01:57:31.295Z,40.22
2023-04-11T01:59:58.284Z,35.22
2023-04-11T02:02:26.217Z,35.63
2023-04-11T02:04:53.363Z,32.80
2023-04-11T02:07:21.097Z,38.88
2023-04-11T02:09:48.261Z,33.13
2023-04-11T02:12:15.746Z,33.85
2023-04-11T02:14:44.289Z,39.95
2023-04-11T02:17:14.150Z,36.47
2023-04-11T02:19:41.774Z,38.63
2023-04-11T02:22:11.442Z,33.67
2023-04-11T02:24:40.450Z,38.58
2023-04-11T02:27:08.060Z,39.80
2023-04-11T02:29:35.721Z,36.38
2023-04-11T02:32:02.929Z,37.50
2023-04-11T02:34:30.012Z,38.70
2023-04-11T02:36:57.006Z,38.05
2023-04-11T02:39:24.322Z,41.78
2023-04-11T02:41:51.518Z,36.47
2023-04-11T02:44:19.877Z,37.75
2023-04-11T02:46:47.325Z,44.10
2023-04-11T02:49:14.614Z,41.53
2023-04-11T02:51:42.109Z,42.30
2023-04-11T02:54:09.137Z,38.20
2023-04-11T02:56:39.197Z,35.60
2023-04-11T02:59:07.119Z,41.47
2023-04-11T03:01:34.794Z,34.65
2023-04-11T03:04:02.111Z,39.83
2023-04-11T03:06:44.120Z,37.30
2023-04-11T03:09:11.884Z,43.35
2023-04-11T03:11:38.916Z,44.03
2023-04-11T03:14:06.059Z,40.22
2023-04-11T03:16:33.235Z,43.88
2023-04-11T03:19:00.611Z,37.15
2023-04-11T03:21:27.700Z,32.70
2023-04-11T03:23:54.782Z,54.60
2023-04-11T03:26:27.360Z,45.28
2023-04-11T03:28:59.141Z,42.15
2023-04-11T03:31:31.226Z,39.22
2023-04-11T03:33:59.387Z,27.73
2023-04-11T03:36:27.235Z,30.23
2023-04-11T03:38:54.923Z,25.05
2023-04-11T03:41:22.330Z,29.60
2023-04-11T03:43:50.767Z,34.10
2023-04-11T03:46:20.221Z,29.02
2023-04-11T03:48:48.019Z,32.50
2023-04-11T03:51:16.994Z,28.83
2023-04-11T03:53:57.790Z,24.42
2023-04-11T03:56:29.649Z,26.80
2023-04-11T03:58:57.082Z,28.05
2023-04-11T04:01:28.824Z,27.58
2023-04-11T04:04:02.130Z,24.25
2023-04-11T04:06:31.117Z,23.50
2023-04-11T04:08:59.899Z,20.77
2023-04-11T04:11:31.887Z,22.35
2023-04-11T04:13:59.537Z,22.27
2023-04-11T04:16:26.657Z,23.70
2023-04-11T04:18:58.089Z,21.90
2023-04-11T04:21:26.895Z,24.25
2023-04-11T04:23:57.911Z,24.75
2023-04-11T04:26:44.013Z,23.83
2023-04-11T04:29:34.783Z,22.02
2023-04-11T04:32:13.489Z,23.92
2023-04-11T04:34:49.468Z,23.73
2023-04-11T04:37:25.377Z,25.73
2023-04-11T04:40:08.667Z,24.52
2023-04-11T04:42:44.461Z,31.67
2023-04-11T04:45:11.965Z,25.48
2023-04-11T04:47:39.240Z,27.90
2023-04-11T04:50:07.228Z,21.90
2023-04-11T04:52:34.691Z,28.00
2023-04-11T04:55:02.573Z,24.55
2023-04-11T04:57:32.195Z,27.52
2023-04-11T04:59:59.967Z,29.25
2023-04-11T05:02:27.810Z,28.92
2023-04-11T05:05:04.200Z,28.33
2023-04-11T05:07:32.911Z,26.30
2023-04-11T05:10:00.276Z,28.15
2023-04-11T05:12:30.514Z,31.38
2023-04-11T05:15:03.194Z,33.60
2023-04-11T05:17:31.941Z,40.83
2023-04-11T05:19:59.052Z,33.83
2023-04-11T05:22:27.347Z,30.80
2023-04-11T05:24:57.061Z,30.90
2023-04-11T05:27:24.132Z,33.10
2023-04-11T05:29:51.622Z,30.88
2023-04-11T05:32:19.552Z,47.28
2023-04-11T05:34:56.669Z,37.67
2023-04-11T05:37:40.568Z,38.90
2023-04-11T05:40:09.012Z,40.08
2023-04-11T05:42:36.156Z,41.17
2023-04-11T05:45:03.138Z,40.47
2023-04-11T05:47:31.285Z,37.17
2023-04-11T05:49:58.332Z,39.92
2023-04-11T05:52:25.771Z,43.30
2023-04-11T05:54:52.793Z,43.65
2023-04-11T05:57:19.835Z,36.45
2023-04-11T05:59:50.008Z,35.72
2023-04-11T06:02:17.602Z,40.30
2023-04-11T06:04:44.907Z,38.85
2023-04-11T06:07:12.559Z,35.08
2023-04-11T06:09:42.573Z,30.55
2023-04-11T06:12:09.815Z,34.97
2023-04-11T06:14:39.553Z,34.95
2023-04-11T06:17:07.357Z,35.97
2023-04-11T06:19:34.347Z,35.03
2023-04-11T06:22:01.678Z,39.22
2023-04-11T06:24:37.261Z,37.15
2023-04-11T06:27:04.955Z,31.80
2023-04-11T06:29:32.319Z,38.45
2023-04-11T06:31:59.507Z,43.95
2023-04-11T06:34:26.549Z,47.28
2023-04-11T06:36:53.696Z,30.88
2023-04-11T06:39:20.757Z,37.75
2023-04-11T06:41:48.291Z,28.70
2023-04-11T06:44:24.218Z,27.02
2023-04-11T06:46:51.322Z,33.53
2023-04-11T06:49:19.081Z,30.88
2023-04-11T06:51:50.373Z,37.22
2023-04-11T06:54:18.700Z,25.05
2023-04-11T06:56:45.919Z,23.75
2023-04-11T06:59:13.753Z,22.73
2023-04-11T07:01:40.901Z,29.60
2023-04-11T07:04:08.951Z,24.02
2023-04-11T07:06:36.116Z,17.23
2023-04-11T07:09:06.794Z,23.70
2023-04-11T07:11:33.903Z,22.35
2023-04-11T07:14:02.046Z,24.38
2023-04-11T07:16:29.244Z,21.58
2023-04-11T07:18:56.839Z,23.77
2023-04-11T07:21:23.860Z,30.65
2023-04-11T07:23:52.815Z,37.80
2023-04-11T07:26:19.844Z,35.83
2023-04-11T07:28:47.529Z,37.88
2023-04-11T07:31:15.266Z,31.92
2023-04-11T07:33:45.536Z,38.05
2023-04-11T07:36:12.820Z,36.22
2023-04-11T07:38:39.889Z,33.30
2023-04-11T07:41:08.364Z,29.00
2023-04-11T07:43:35.474Z,33.50
2023-04-11T07:46:02.702Z,32.80
2023-04-11T07:48:31.055Z,34.13
2023-04-11T07:50:58.064Z,37.92
2023-04-11T07:53:25.162Z,38.10
2023-04-11T07:55:52.109Z,37.03
2023-04-11T07:58:19.127Z,35.30
2023-04-11T08:00:46.372Z,37.45
2023-04-11T08:03:13.726Z,40.17
2023-04-11T08:05:41.019Z,36.00
2023-04-11T08:08:08.227Z,22.27
2023-04-11T08:10:35.341Z,20.30
2023-04-11T08:13:02.440Z,19.35
2023-04-11T08:15:29.541Z,25.95
2023-04-11T08:17:56.776Z,24.52
2023-04-11T08:20:24.772Z,22.30
2023-04-11T08:22:51.871Z,27.08
2023-04-11T08:25:25.604Z,26.63
2023-04-11T08:27:52.754Z,26.52
2023-04-11T08:30:20.686Z,23.38
2023-04-11T08:32:47.924Z,24.45
2023-04-11T08:35:15.075Z,28.40
2023-04-11T08:37:44.414Z,23.52
2023-04-11T08:40:11.991Z,24.60
2023-04-11T08:42:39.897Z,29.45
2023-04-11T08:45:08.924Z,29.80
2023-04-11T08:47:39.382Z,23.30
2023-04-11T08:50:07.406Z,29.00
2023-04-11T08:52:34.866Z,31.40
2023-04-11T08:55:02.075Z,31.13
2023-04-11T08:57:31.812Z,28.38
2023-04-11T09:00:10.080Z,30.42
2023-04-11T09:02:55.629Z,24.95
2023-04-11T09:05:33.880Z,27.58
2023-04-11T09:08:03.939Z,27.02
2023-04-11T09:10:30.929Z,25.00
2023-04-11T09:12:58.453Z,25.08
2023-04-11T09:15:28.002Z,22.67
2023-04-11T09:17:58.173Z,21.88
2023-04-11T09:20:29.619Z,27.27
2023-04-11T09:22:59.071Z,25.95
2023-04-11T09:25:26.192Z,29.80
2023-04-11T09:28:08.533Z,22.70
2023-04-11T09:30:37.264Z,22.48
2023-04-11T09:33:25.868Z,24.15
2023-04-11T09:35:55.172Z,26.63
2023-04-11T09:38:33.344Z,26.15
2023-04-11T09:41:01.770Z,24.42
2023-04-11T09:43:48.568Z,23.20
2023-04-11T09:46:18.865Z,24.52
2023-04-11T09:49:01.836Z,24.42
2023-04-11T09:51:36.543Z,21.25
2023-04-11T09:54:05.848Z,21.10
2023-04-11T09:56:36.530Z,26.23
2023-04-11T09:59:05.134Z,25.83
2023-04-11T10:01:32.514Z,20.40
2023-04-11T10:04:01.450Z,21.02
2023-04-11T10:06:39.334Z,19.17
2023-04-11T10:09:12.926Z,20.10
2023-04-11T10:11:46.204Z,19.60
2023-04-11T10:14:39.388Z,15.52
2023-04-11T10:17:21.422Z,21.15
2023-04-11T10:19:59.582Z,21.73
2023-04-11T10:22:41.824Z,22.30
2023-04-11T10:25:51.108Z,18.42
2023-04-11T10:28:39.285Z,19.25
2023-04-11T10:31:13.440Z,19.85
2023-04-11T10:34:01.053Z,19.25
2023-04-11T10:36:28.067Z,17.15
2023-04-11T10:38:55.050Z,19.25
2023-04-11T10:41:28.533Z,16.65
2023-04-11T10:44:14.937Z,19.58
2023-04-11T10:49:38.496Z,19.88
2023-04-11T10:52:23.044Z,21.13
2023-04-11T10:54:52.750Z,22.05
2023-04-11T10:57:20.789Z,20.73
2023-04-11T10:59:50.875Z,21.10
2023-04-11T11:02:22.104Z,18.13
2023-04-11T11:04:49.619Z,19.17
2023-04-11T11:07:17.586Z,16.70
2023-04-11T11:09:51.474Z,18.13
2023-04-11T11:12:18.694Z,16.63
2023-04-11T11:14:47.591Z,18.98
2023-04-11T11:17:16.099Z,16.48
2023-04-11T11:19:47.624Z,20.23
2023-04-11T11:22:25.598Z,19.92
2023-04-11T11:24:53.269Z,19.60
2023-04-11T11:27:24.968Z,18.73
2023-04-11T11:29:52.915Z,17.25
2023-04-11T11:32:29.061Z,20.67
2023-04-11T11:34:57.844Z,21.55
2023-04-11T11:37:25.219Z,18.23
2023-04-11T11:39:53.177Z,22.67
2023-04-11T11:42:20.568Z,18.02
2023-04-11T11:44:47.820Z,23.63
2023-04-11T11:47:17.933Z,18.17
2023-04-11T11:49:51.060Z,17.20
2023-04-11T11:52:34.945Z,17.85
2023-04-11T11:55:08.794Z,18.48
2023-04-11T11:57:37.870Z,19.83
2023-04-11T12:00:11.827Z,18.02
2023-04-11T12:02:40.238Z,16.90
2023-04-11T12:05:08.651Z,19.25
2023-04-11T12:07:38.457Z,15.60
2023-04-11T12:10:11.908Z,16.73
2023-04-11T12:12:42.327Z,17.17
2023-04-11T12:15:16.269Z,17.70
2023-04-11T12:17:43.880Z,16.17
2023-04-11T12:20:11.357Z,15.88
2023-04-11T12:22:38.609Z,16.92
2023-04-11T12:25:09.910Z,20.23
2023-04-11T12:27:38.160Z,21.58
2023-04-11T12:30:06.347Z,19.08
2023-04-11T12:32:34.267Z,26.08
2023-04-11T12:35:03.161Z,19.05
2023-04-11T12:37:31.181Z,19.52
2023-04-11T12:39:58.222Z,20.45
2023-04-11T12:42:27.423Z,17.58
2023-04-11T12:44:54.875Z,22.67
2023-04-11T12:47:21.985Z,20.77
2023-04-11T12:49:49.021Z,17.38
2023-04-11T12:52:16.370Z,16.98
2023-04-11T12:54:43.367Z,21.17
2023-04-11T12:57:12.476Z,22.38
2023-04-11T13:02:07.982Z,18.45
2023-04-11T13:04:35.285Z,21.48
2023-04-11T13:07:02.380Z,19.60
2023-04-11T13:09:31.628Z,18.65
2023-04-11T13:11:59.781Z,20.13
2023-04-11T13:14:26.841Z,21.20
2023-04-11T13:16:54.154Z,15.60
2023-04-11T13:19:21.864Z,12.95
2023-04-11T13:21:49.326Z,19.40
2023-04-11T13:24:16.655Z,19.90
2023-04-11T13:26:45.224Z,26.05
2023-04-11T13:29:12.313Z,25.85
2023-04-11T13:31:39.456Z,17.77
2023-04-11T13:34:06.546Z,17.95
2023-04-11T13:36:33.685Z,20.77
2023-04-11T13:39:00.735Z,19.42
2023-04-11T13:41:27.759Z,19.08
2023-04-11T13:43:54.828Z,19.25
2023-04-11T13:46:21.938Z,15.80
2023-04-11T13:48:49.103Z,20.77
2023-04-11T13:51:16.264Z,15.05
2023-04-11T13:53:43.320Z,22.85
2023-04-11T13:56:11.444Z,16.63
2023-04-11T13:58:39.068Z,17.50
2023-04-11T14:01:06.928Z,19.17
2023-04-11T14:03:34.296Z,17.08
2023-04-11T14:06:01.747Z,15.50
2023-04-11T14:08:29.276Z,21.88
2023-04-11T14:10:56.516Z,22.45
2023-04-11T14:13:23.642Z,22.40
2023-04-11T14:16:01.388Z,23.15
2023-04-11T14:18:35.004Z,19.65
2023-04-11T14:21:02.424Z,18.98
2023-04-11T14:23:29.873Z,25.65
2023-04-11T14:25:57.001Z,49.15
2023-04-11T14:28:26.430Z,28.88
2023-04-11T14:30:55.472Z,28.98
2023-04-11T14:33:23.144Z,24.75
2023-04-11T14:35:51.143Z,19.50
2023-04-11T14:38:18.157Z,23.15
2023-04-11T14:40:45.217Z,24.98
2023-04-11T14:43:12.360Z,60.67
2023-04-11T14:45:39.602Z,22.05
2023-04-11T14:48:06.841Z,41.83
2023-04-11T14:50:34.271Z,23.52
2023-04-11T14:53:01.422Z,25.65
2023-04-11T14:55:28.598Z,26.58
2023-04-11T14:57:56.685Z,20.60
2023-04-11T15:00:25.057Z,24.27
2023-04-11T15:02:54.825Z,20.67
2023-04-11T15:05:23.855Z,20.90
2023-04-11T15:07:52.962Z,26.58
2023-04-11T15:10:22.583Z,30.25
2023-04-11T15:12:49.771Z,20.73
2023-04-11T15:15:17.510Z,19.45
2023-04-11T15:17:49.895Z,21.75
2023-04-11T15:20:17.399Z,17.55
2023-04-11T15:22:46.578Z,25.75
2023-04-11T15:25:16.259Z,23.85
2023-04-11T15:27:43.927Z,24.77
2023-04-11T15:30:11.590Z,21.63
2023-04-11T15:32:45.007Z,31.42
2023-04-11T15:35:12.386Z,25.13
2023-04-11T15:37:39.503Z,22.65
2023-04-11T15:40:07.222Z,28.30
2023-04-11T15:42:35.592Z,24.92
2023-04-11T15:45:03.235Z,32.38
2023-04-11T15:47:31.572Z,26.13
2023-04-11T15:50:02.988Z,27.42
2023-04-11T15:52:30.720Z,56.85
2023-04-11T15:54:57.781Z,38.90
2023-04-11T15:57:24.921Z,29.30
2023-04-11T15:59:51.922Z,25.67
2023-04-11T16:02:19.013Z,22.30
2023-04-11T16:04:47.934Z,26.33
2023-04-11T16:07:18.643Z,26.73
2023-04-11T16:09:46.535Z,29.95
2023-04-11T16:12:13.629Z,21.80
2023-04-11T16:14:40.741Z,25.13
2023-04-11T16:17:07.736Z,27.83
2023-04-11T16:19:35.138Z,29.05
2023-04-11T16:22:02.241Z,23.85
2023-04-11T16:24:30.040Z,26.13
2023-04-11T16:26:57.512Z,24.08
2023-04-11T16:29:25.425Z,35.63
2023-04-11T16:31:52.646Z,29.80
2023-04-11T16:34:19.724Z,29.63
2023-04-11T16:36:46.786Z,26.50
2023-04-11T16:39:14.095Z,29.42
2023-04-11T16:41:41.247Z,22.85
2023-04-11T16:44:14.101Z,29.83
2023-04-11T16:46:41.975Z,33.53
2023-04-11T16:49:09.853Z,25.35
2023-04-11T16:51:37.804Z,34.40
2023-04-11T16:54:09.736Z,40.10
2023-04-11T16:56:37.709Z,30.67
2023-04-11T16:59:05.363Z,34.45
2023-04-11T17:01:32.549Z,41.13
2023-04-11T17:04:02.398Z,29.38
2023-04-11T17:06:29.635Z,29.85
2023-04-11T17:08:57.867Z,33.70
2023-04-11T17:11:25.213Z,33.25
2023-04-11T17:13:54.678Z,28.15
2023-04-11T17:16:22.197Z,32.13
2023-04-11T17:18:49.311Z,37.17
2023-04-11T17:21:17.212Z,32.95
2023-04-11T17:23:44.954Z,29.55
2023-04-11T17:26:12.565Z,30.33
2023-04-11T17:28:40.959Z,28.50
2023-04-11T17:31:16.276Z,29.33
2023-04-11T17:33:43.908Z,32.22
2023-04-11T17:36:12.550Z,26.95
2023-04-11T17:38:40.978Z,30.42
2023-04-11T17:41:14.476Z,33.20
2023-04-11T17:43:43.098Z,30.23
2023-04-11T17:46:10.310Z,42.83
2023-04-11T17:48:37.471Z,33.97
2023-04-11T17:51:07.984Z,38.92
2023-04-11T17:53:35.108Z,30.55
2023-04-11T17:56:06.185Z,34.40
2023-04-11T17:58:33.998Z,41.30
2023-04-11T18:01:03.292Z,35.30
2023-04-11T18:06:02.789Z,29.75
2023-04-11T18:08:49.152Z,33.55
2023-04-11T18:11:17.287Z,37.10
2023-04-11T18:13:44.356Z,43.35
2023-04-11T18:16:11.960Z,44.58
2023-04-11T18:18:39.050Z,44.70
2023-04-11T18:21:07.913Z,42.90
2023-04-11T18:23:35.743Z,47.35
2023-04-11T18:26:02.783Z,37.58
2023-04-11T18:28:30.192Z,37.42
2023-04-11T18:30:57.335Z,37.03
2023-04-11T18:33:24.466Z,39.35
2023-04-11T18:35:51.841Z,38.30
2023-04-11T18:38:19.010Z,45.60
2023-04-11T18:40:46.371Z,47.20
2023-04-11T18:43:13.828Z,45.92
2023-04-11T18:45:42.006Z,65.82
2023-04-11T18:48:09.548Z,47.92
2023-04-11T18:50:45.441Z,46.50
2023-04-11T18:53:13.829Z,63.15
2023-04-11T18:55:41.468Z,48.53
2023-04-11T18:58:09.958Z,66.35
2023-04-11T19:00:39.013Z,41.90
2023-04-11T19:03:07.106Z,35.30
2023-04-11T19:05:34.741Z,51.60
2023-04-11T19:08:02.021Z,42.63
2023-04-11T19:10:29.193Z,48.70
2023-04-11T19:12:56.317Z,44.30
2023-04-11T19:15:23.839Z,39.80
2023-04-11T19:17:51.668Z,40.72
2023-04-11T19:20:19.343Z,45.33
2023-04-11T19:22:46.707Z,38.45
2023-04-11T19:25:14.189Z,53.97
2023-04-11T19:27:42.544Z,50.60
2023-04-11T19:30:11.451Z,44.08
2023-04-11T19:32:40.968Z,41.58
2023-04-11T20:08:38.982Z,53.85
2023-04-11T20:11:06.511Z,50.88
2023-04-11T20:13:34.034Z,51.08
2023-04-11T20:16:04.735Z,40.80
2023-04-11T20:18:31.922Z,46.08
2023-04-11T20:20:58.917Z,41.92
2023-04-11T20:23:26.199Z,51.88
2023-04-11T20:25:53.295Z,51.22
2023-04-11T20:28:21.653Z,46.53
2023-04-11T20:30:48.688Z,38.22
2023-04-11T20:33:15.816Z,38.53
2023-04-11T20:35:42.816Z,42.15
2023-04-11T20:38:09.868Z,42.97
2023-04-11T20:40:37.222Z,48.63
2023-04-11T20:43:05.621Z,41.80
2023-04-11T20:45:33.919Z,47.97
2023-04-11T20:48:02.200Z,44.50
2023-04-11T20:50:33.485Z,46.17
2023-04-11T20:53:01.830Z,44.90
2023-04-11T20:55:30.146Z,37.33
2023-04-11T20:57:57.216Z,49.72
2023-04-11T21:00:24.903Z,42.03
2023-04-11T21:02:52.111Z,58.95
2023-04-11T21:05:22.376Z,46.25
2023-04-11T21:07:49.606Z,43.38
2023-04-11T21:10:16.748Z,52.20
2023-04-11T21:12:43.868Z,49.92
2023-04-11T21:15:11.933Z,44.28
2023-04-11T21:17:39.759Z,55.60
2023-04-11T21:20:17.922Z,64.32
2023-04-11T21:22:49.644Z,45.63
2023-04-11T21:25:16.989Z,53.63
2023-04-11T21:27:44.415Z,44.00
2023-04-11T21:30:12.727Z,54.83
2023-04-11T21:32:40.494Z,43.78
2023-04-11T21:35:09.603Z,42.72
2023-04-11T21:37:36.886Z,51.78
2023-04-11T21:40:04.439Z,44.42
2023-04-11T21:42:31.466Z,54.72
2023-04-11T21:44:58.560Z,47.92
2023-04-11T21:47:25.791Z,53.00
2023-04-11T21:49:52.836Z,51.55
2023-04-11T21:52:19.880Z,41.97
2023-04-11T21:54:47.066Z,53.70
2023-04-11T21:57:14.144Z,56.88
2023-04-11T21:59:41.139Z,67.88
2023-04-11T22:02:08.414Z,57.30
2023-04-11T22:04:44.013Z,50.72
2023-04-11T22:07:24.150Z,42.63
2023-04-11T22:09:58.370Z,48.17
2023-04-11T22:12:27.241Z,52.08
2023-04-11T22:14:57.281Z,47.47
2023-04-11T22:17:24.409Z,43.90
2023-04-11T22:19:51.456Z,46.83
2023-04-11T22:22:18.867Z,45.75
2023-04-11T22:24:48.894Z,52.22
2023-04-11T22:27:18.349Z,59.63
2023-04-11T22:29:45.587Z,49.47
2023-04-11T22:32:12.616Z,48.88
2023-04-11T22:34:39.697Z,45.55
2023-04-11T22:37:06.693Z,41.70
2023-04-11T22:39:34.460Z,45.95
2023-04-11T22:42:01.509Z,43.80
2023-04-11T22:44:28.611Z,38.78
2023-04-11T22:47:08.106Z,54.75
2023-04-11T22:49:40.699Z,49.45
2023-04-11T22:52:09.556Z,42.95
2023-04-11T22:54:36.804Z,44.25
2023-04-11T22:57:03.918Z,43.20
2023-04-11T22:59:31.048Z,37.35
2023-04-11T23:01:58.138Z,41.85
2023-04-11T23:04:25.259Z,44.10
2023-04-11T23:06:53.719Z,48.10
2023-04-11T23:09:21.358Z,44.40
2023-04-11T23:11:49.019Z,42.60
2023-04-11T23:14:21.274Z,39.42
2023-04-11T23:16:48.719Z,42.47
2023-04-11T23:19:15.833Z,36.38
2023-04-11T23:21:43.179Z,40.58
2023-04-11T23:24:10.437Z,37.67
2023-04-11T23:26:37.463Z,50.22
2023-04-11T23:29:04.591Z,43.25
2023-04-11T23:31:32.755Z,39.45
2023-04-11T23:34:00.729Z,39.47
2023-04-11T23:36:29.356Z,47.60
2023-04-11T23:38:56.848Z,44.10
2023-04-11T23:41:24.210Z,39.42
2023-04-11T23:43:51.375Z,37.80
2023-04-11T23:46:18.485Z,44.20
2023-04-11T23:48:47.240Z,35.40
2023-04-11T23:51:14.814Z,38.78
2023-04-11T23:53:42.964Z,46.33
2023-04-11T23:56:10.065Z,40.63
2023-04-11T23:58:37.551Z,38.97
